Time;durP1;ratioP1;P1;durP2;ratioP2;P2;SDS_P1;SDS_P2;PMS_P1;PMS_P2;Temp;Humidity;BMP_temperature;BMP_pressure;BME280_temperature;BME280_humidity;BME280_pressure;Samples;Min_cycle;Max_cycle;Signal;HPM_P1;HPM_P2
2024/01/18 00:01:25;;;;;;;22.17;9.83;;;;;;;2.63;82.51;99629.23;123481;1099;104377;-77
2024/01/18 00:03:56;;;;;;;19.95;8.75;;;;;;;2.66;83.44;99630.27;123553;1099;104239;-77
2024/01/18 00:06:28;;;;;;;19.30;9.23;;;;;;;2.67;82.86;99639.83;123139;1098;104245;-76
2024/01/18 00:08:59;;;;;;;20.63;9.00;;;;;;;2.71;83.05;99638.28;123511;1099;105557;-77
2024/01/18 00:11:30;;;;;;;18.33;8.67;;;;;;;2.74;82.65;99637.57;123453;1099;104241;-77
2024/01/18 00:14:02;;;;;;;20.47;9.67;;;;;;;2.75;82.76;99629.88;123182;1099;104309;-77
2024/01/18 00:16:34;;;;;;;19.27;9.03;;;;;;;2.77;82.53;99625.66;123508;1099;104255;-77
2024/01/18 00:19:06;;;;;;;21.83;8.73;;;;;;;2.79;82.97;99628.33;123430;1099;104739;-77
2024/01/18 00:21:37;;;;;;;19.90;8.97;;;;;;;2.78;82.86;99617.09;123416;1098;104325;-77
2024/01/18 00:24:08;;;;;;;18.20;8.70;;;;;;;2.79;83.26;99610.19;123135;1099;104223;-77
2024/01/18 00:26:39;;;;;;;19.70;9.53;;;;;;;2.79;83.40;99594.64;123438;1099;104383;-77
2024/01/18 00:29:11;;;;;;;22.33;10.03;;;;;;;2.80;83.53;99605.09;123102;1099;104277;-77
2024/01/18 00:31:42;;;;;;;20.90;9.53;;;;;;;2.77;83.43;99597.16;123494;1099;104334;-78
2024/01/18 00:34:13;;;;;;;19.23;9.13;;;;;;;2.75;83.36;99600.50;123425;1099;104290;-79
2024/01/18 00:36:46;;;;;;;20.63;8.73;;;;;;;2.74;82.83;99594.41;123189;1099;104328;-77
2024/01/18 00:39:19;;;;;;;17.27;8.33;;;;;;;2.75;83.05;99590.14;123441;1099;104249;-78
2024/01/18 00:41:51;;;;;;;19.65;9.10;;;;;;;2.75;83.09;99584.95;123430;1099;104347;-76
2024/01/18 00:44:22;;;;;;;20.53;8.77;;;;;;;2.77;83.50;99579.02;123216;1099;104482;-77
2024/01/18 00:46:54;;;;;;;19.80;9.07;;;;;;;2.80;83.27;99568.81;123243;1099;104629;-76
2024/01/18 00:49:25;;;;;;;20.50;9.00;;;;;;;2.83;83.55;99565.50;123535;1098;104335;-76
2024/01/18 00:51:56;;;;;;;19.77;9.43;;;;;;;2.86;83.74;99558.77;123462;1099;104377;-77
2024/01/18 00:54:30;;;;;;;19.60;9.00;;;;;;;2.86;82.80;99553.59;123510;1099;104354;-77
2024/01/18 00:57:01;;;;;;;22.03;9.90;;;;;;;2.84;83.66;99550.03;123468;1099;104293;-77
2024/01/18 00:59:34;;;;;;;23.37;10.60;;;;;;;2.84;84.00;99550.03;123442;1098;104268;-77
2024/01/18 01:02:08;;;;;;;24.23;10.80;;;;;;;2.77;83.88;99553.11;123438;1099;104214;-77
2024/01/18 01:04:39;;;;;;;25.60;11.30;;;;;;;2.73;84.14;99551.20;123605;1099;104200;-77
2024/01/18 01:07:10;;;;;;;22.83;10.90;;;;;;;2.72;83.78;99545.94;123402;1099;104357;-76
2024/01/18 01:09:41;;;;;;;27.17;11.57;;;;;;;2.72;84.21;99548.53;123503;1099;104689;-77
2024/01/18 01:12:12;;;;;;;29.30;12.90;;;;;;;2.73;84.54;99540.84;123223;1100;104383;-77
2024/01/18 01:14:44;;;;;;;25.40;11.03;;;;;;;2.74;84.43;99531.35;123460;1098;104271;-76
2024/01/18 01:17:15;;;;;;;27.23;11.80;;;;;;;2.76;83.93;99528.04;123281;1102;104456;-77
2024/01/18 01:19:47;;;;;;;26.05;12.50;;;;;;;2.77;84.14;99524.61;123705;1099;104287;-77
2024/01/18 01:22:18;;;;;;;25.80;11.90;;;;;;;2.75;84.42;99528.84;123626;1099;104277;-78
2024/01/18 01:24:49;;;;;;;24.63;11.77;;;;;;;2.76;84.28;99516.77;123605;1099;104354;-77
2024/01/18 01:27:20;;;;;;;24.70;11.23;;;;;;;2.78;84.10;99512.57;123595;1098;104252;-77
2024/01/18 01:29:51;;;;;;;24.23;11.13;;;;;;;2.79;84.24;99520.42;123509;1098;104261;-77
2024/01/18 01:32:22;;;;;;;21.00;9.85;;;;;;;2.83;84.41;99511.09;123542;1099;104303;-77
2024/01/18 01:34:54;;;;;;;20.97;10.40;;;;;;;2.83;84.36;99506.79;123442;1099;104281;-77
2024/01/18 01:37:25;;;;;;;22.77;10.87;;;;;;;2.84;84.07;99497.34;123379;1099;104254;-76
2024/01/18 01:39:56;;;;;;;20.47;10.30;;;;;;;2.87;84.73;99502.67;123437;1098;104345;-75
2024/01/18 01:42:27;;;;;;;21.45;11.20;;;;;;;2.86;84.82;99506.07;123445;1099;104440;-76
2024/01/18 01:44:58;;;;;;;25.37;11.17;;;;;;;2.83;84.83;99509.38;123422;1099;104274;-77
2024/01/18 01:47:29;;;;;;;23.23;10.23;;;;;;;2.81;84.69;99508.42;123460;1099;104619;-76
2024/01/18 01:50:01;;;;;;;24.90;11.40;;;;;;;2.75;85.10;99497.75;123471;1098;104245;-76
2024/01/18 01:52:34;;;;;;;22.70;10.90;;;;;;;2.73;85.48;99494.20;123444;1098;104284;-76
2024/01/18 01:55:07;;;;;;;24.83;12.30;;;;;;;2.70;84.54;99478.50;123443;1098;104375;-76
2024/01/18 01:57:40;;;;;;;24.53;10.70;;;;;;;2.70;85.53;99473.33;123523;1099;104322;-76
2024/01/18 02:00:15;;;;;;;23.47;11.00;;;;;;;2.72;85.10;99483.77;123492;1099;104281;-76
2024/01/18 02:02:47;;;;;;;23.57;11.67;;;;;;;2.70;85.48;99491.45;123607;1099;104358;-76
2024/01/18 02:05:19;;;;;;;24.87;11.03;;;;;;;2.69;85.20;99482.77;123472;1099;104693;-77
2024/01/18 02:07:50;;;;;;;23.45;11.55;;;;;;;2.70;85.48;99488.87;123514;1099;104341;-76
2024/01/18 02:10:22;;;;;;;24.97;11.83;;;;;;;2.72;85.54;99487.23;123428;1099;104302;-76
2024/01/18 02:12:54;;;;;;;26.57;11.77;;;;;;;2.74;85.81;99488.19;123429;1099;104303;-76
2024/01/18 02:15:26;;;;;;;23.90;12.07;;;;;;;2.74;85.90;99480.41;123638;1099;104354;-76
2024/01/18 02:17:57;;;;;;;24.90;11.37;;;;;;;2.76;86.31;99473.63;123604;1099;104353;-76
2024/01/18 02:20:28;;;;;;;25.40;11.77;;;;;;;2.78;85.88;99463.34;123638;1098;104299;-76
2024/01/18 02:23:02;;;;;;;22.65;11.50;;;;;;;2.79;86.86;99446.97;123662;1099;104245;-76
2024/01/18 02:25:33;;;;;;;24.55;12.37;;;;;;;2.79;87.28;99437.52;123772;1099;104380;-77
2024/01/18 02:28:04;;;;;;;23.27;12.00;;;;;;;2.81;87.64;99435.00;123627;1099;104312;-77
2024/01/18 02:30:36;;;;;;;23.83;11.70;;;;;;;2.80;87.86;99415.08;123804;1098;104273;-78
2024/01/18 02:33:07;;;;;;;24.20;11.87;;;;;;;2.84;90.71;99388.52;123385;1099;104332;-77
2024/01/18 02:35:38;;;;;;;24.70;13.13;;;;;;;2.85;90.54;99386.00;123758;1099;104712;-76
2024/01/18 02:38:10;;;;;;;25.57;13.60;;;;;;;2.85;89.54;99383.41;123304;1099;104255;-76
2024/01/18 02:40:42;;;;;;;25.87;13.10;;;;;;;2.85;89.70;99365.27;123749;1099;104200;-78
2024/01/18 02:43:13;;;;;;;27.00;12.70;;;;;;;2.85;88.58;99370.45;123467;1099;104357;-77
2024/01/18 02:45:44;;;;;;;25.50;12.93;;;;;;;2.84;89.85;99367.79;123642;1099;104332;-76
2024/01/18 02:48:16;;;;;;;25.83;13.00;;;;;;;2.83;88.75;99368.59;123536;1099;104290;-77
2024/01/18 02:50:47;;;;;;;27.10;13.73;;;;;;;2.83;89.20;99377.24;123419;1098;104271;-77
2024/01/18 02:53:20;;;;;;;28.53;13.57;;;;;;;2.84;88.89;99385.92;123711;1099;104290;-76
2024/01/18 02:55:51;;;;;;;23.70;12.23;;;;;;;2.85;88.49;99393.77;124683;1099;104277;-77
2024/01/18 02:58:22;;;;;;;26.57;12.97;;;;;;;2.88;88.99;99403.38;123623;1099;104325;-76
2024/01/18 03:00:54;;;;;;;27.93;13.27;;;;;;;2.90;88.63;99395.67;123542;1099;104322;-77
2024/01/18 03:03:25;;;;;;;25.83;12.53;;;;;;;2.88;89.01;99382.64;123665;1098;104226;-77
2024/01/18 03:05:56;;;;;;;26.50;12.53;;;;;;;2.84;88.72;99376.44;123567;1099;104232;-76
2024/01/18 03:08:27;;;;;;;23.17;11.43;;;;;;;2.83;88.59;99360.82;123736;1098;104255;-76
2024/01/18 03:10:58;;;;;;;24.80;12.27;;;;;;;2.80;88.22;99364.14;123161;1100;104406;-76
2024/01/18 03:13:30;;;;;;;24.07;12.33;;;;;;;2.78;88.99;99358.00;123375;1099;104274;-77
2024/01/18 03:16:02;;;;;;;27.27;13.10;;;;;;;2.77;88.04;99360.52;123385;1099;104335;-75
2024/01/18 03:18:37;;;;;;;24.77;12.83;;;;;;;2.73;88.53;99364.67;123152;1099;104361;-77
2024/01/18 03:21:09;;;;;;;23.93;12.27;;;;;;;2.73;88.65;99364.67;123360;1099;104278;-76
2024/01/18 03:23:40;;;;;;;25.40;12.87;;;;;;;2.72;88.80;99368.07;123432;1099;104370;-76
2024/01/18 03:26:12;;;;;;;25.67;13.07;;;;;;;2.72;89.12;99368.07;123414;1099;104802;-76
2024/01/18 03:28:43;;;;;;;25.50;11.33;;;;;;;2.72;88.76;99351.66;123500;1099;104290;-76
2024/01/18 03:31:14;;;;;;;26.03;12.97;;;;;;;2.70;88.59;99354.17;123492;1099;104229;-76
2024/01/18 03:33:46;;;;;;;26.70;14.00;;;;;;;2.66;89.17;99345.33;123448;1098;104249;-76
2024/01/18 03:36:17;;;;;;;26.33;13.83;;;;;;;2.67;89.10;99341.06;123447;1099;104397;-76
2024/01/18 03:38:48;;;;;;;27.47;13.80;;;;;;;2.67;90.28;99325.52;123663;1099;104725;-77
2024/01/18 03:41:20;;;;;;;27.03;14.37;;;;;;;2.67;89.06;99316.04;123623;1099;104287;-77
2024/01/18 03:43:51;;;;;;;27.37;14.53;;;;;;;2.68;89.30;99324.69;123438;1099;104249;-76
2024/01/18 03:46:22;;;;;;;27.67;14.70;;;;;;;2.67;89.86;99302.21;123667;1099;104274;-76
2024/01/18 03:48:53;;;;;;;26.30;13.75;;;;;;;2.68;90.45;99306.55;123132;1100;104398;-77
2024/01/18 03:51:25;;;;;;;26.33;13.63;;;;;;;2.69;89.28;99305.75;123339;1099;104350;-77
2024/01/18 03:53:56;;;;;;;29.67;14.70;;;;;;;2.72;89.43;99313.67;123419;1099;104315;-77
2024/01/18 03:56:27;;;;;;;26.80;13.83;;;;;;;2.72;89.54;99313.67;123409;1099;104278;-76
2024/01/18 03:58:58;;;;;;;26.40;13.70;;;;;;;2.73;89.83;99305.09;123394;1099;104274;-76
2024/01/18 04:01:32;;;;;;;29.03;14.57;;;;;;;2.73;90.24;99305.09;123146;1099;104351;-76
2024/01/18 04:04:04;;;;;;;29.40;14.27;;;;;;;2.72;89.86;99308.48;123427;1099;104309;-76
2024/01/18 04:06:35;;;;;;;29.90;14.90;;;;;;;2.72;90.38;99305.90;123466;1099;104277;-76
2024/01/18 04:09:08;;;;;;;28.57;15.10;;;;;;;2.75;90.15;99299.98;123555;1099;104328;-76
2024/01/18 04:11:39;;;;;;;28.40;15.00;;;;;;;2.77;90.14;99296.63;123488;1099;104245;-76
2024/01/18 04:14:10;;;;;;;26.97;14.07;;;;;;;2.77;90.51;99294.05;123388;1099;118096;-76
2024/01/18 04:16:42;;;;;;;30.93;15.37;;;;;;;2.80;90.69;99295.91;123130;1099;104392;-76
2024/01/18 04:19:13;;;;;;;26.57;12.17;;;;;;;2.80;90.24;99291.59;123469;1099;104310;-77
2024/01/18 04:21:44;;;;;;;30.27;15.93;;;;;;;2.82;91.53;99297.77;123552;1099;104249;-77
2024/01/18 04:24:18;;;;;;;29.97;14.53;;;;;;;2.81;90.98;99311.52;123414;1099;104303;-77
2024/01/18 04:26:49;;;;;;;28.98;13.85;;;;;;;2.81;91.59;99308.05;123631;1099;104303;-77
2024/01/18 04:29:20;;;;;;;28.15;14.75;;;;;;;2.78;91.74;99308.78;123484;1099;104277;-77
2024/01/18 04:31:52;;;;;;;29.97;15.20;;;;;;;2.76;92.34;99297.47;123499;1098;104323;-78
2024/01/18 04:34:23;;;;;;;29.03;15.27;;;;;;;2.75;90.70;99295.69;123419;1099;104258;-77
2024/01/18 04:36:54;;;;;;;27.77;14.37;;;;;;;2.75;90.64;99293.09;123562;1099;104252;-77
2024/01/18 04:39:25;;;;;;;26.37;13.93;;;;;;;2.76;90.47;99294.88;123615;1098;104349;-76
2024/01/18 04:41:57;;;;;;;29.23;14.87;;;;;;;2.76;90.71;99289.70;123530;1099;104351;-76
2024/01/18 04:44:28;;;;;;;25.40;13.40;;;;;;;2.76;90.79;99279.34;123586;1099;104239;-77
2024/01/18 04:46:59;;;;;;;29.60;14.43;;;;;;;2.75;91.57;99269.78;123657;1099;104350;-77
2024/01/18 04:49:31;;;;;;;28.63;14.67;;;;;;;2.73;92.42;99268.83;123762;1099;104255;-77
2024/01/18 04:52:02;;;;;;;31.97;15.77;;;;;;;2.73;92.73;99266.23;123896;1098;104485;-77
2024/01/18 04:54:33;;;;;;;29.70;15.37;;;;;;;2.71;93.04;99254.89;123714;1099;108820;-77
2024/01/18 04:57:05;;;;;;;30.43;14.97;;;;;;;2.69;92.95;99260.00;123806;1099;104245;-77
2024/01/18 04:59:36;;;;;;;30.35;16.00;;;;;;;2.68;93.15;99258.25;123897;1099;104242;-78
2024/01/18 05:02:07;;;;;;;30.63;15.67;;;;;;;2.66;92.64;99258.98;123845;1099;104245;-78
2024/01/18 05:04:39;;;;;;;31.60;16.27;;;;;;;2.67;93.05;99266.83;123821;1099;104351;-76
2024/01/18 05:07:10;;;;;;;33.17;16.40;;;;;;;2.66;93.21;99262.45;123799;1099;104235;-78
2024/01/18 05:09:42;;;;;;;31.70;15.65;;;;;;;2.68;93.06;99262.52;124291;1099;104274;-78
2024/01/18 05:12:13;;;;;;;30.25;15.55;;;;;;;2.69;92.39;99262.59;124084;1099;104275;-77
2024/01/18 05:14:44;;;;;;;31.03;16.90;;;;;;;2.70;92.49;99248.84;123668;1099;104249;-76
2024/01/18 05:17:16;;;;;;;32.00;15.33;;;;;;;2.74;92.14;99254.16;123668;1098;104357;-75
2024/01/18 05:19:49;;;;;;;30.10;15.13;;;;;;;2.76;92.33;99256.02;123872;1099;104252;-76
2024/01/18 05:22:20;;;;;;;33.43;17.03;;;;;;;2.79;92.48;99250.98;123674;1099;104347;-77
2024/01/18 05:24:51;;;;;;;28.73;15.40;;;;;;;2.80;92.76;99242.38;123501;1099;104274;-77
2024/01/18 05:27:23;;;;;;;36.33;17.20;;;;;;;2.85;92.87;99235.72;123328;1099;104318;-76
2024/01/18 05:29:54;;;;;;;30.07;16.73;;;;;;;2.90;92.86;99229.84;123318;1099;104358;-77
2024/01/18 05:32:26;;;;;;;31.00;15.00;;;;;;;2.94;93.18;99234.36;123564;1099;104667;-78
2024/01/18 05:34:57;;;;;;;33.30;18.13;;;;;;;2.95;92.66;99231.84;123621;1099;104198;-77
2024/01/18 05:37:28;;;;;;;34.77;18.17;;;;;;;2.96;92.42;99238.81;123614;1099;104271;-78
2024/01/18 05:40:00;;;;;;;35.13;18.70;;;;;;;2.95;92.46;99230.97;123444;1099;104804;-78
2024/01/18 05:42:31;;;;;;;34.43;18.77;;;;;;;2.95;92.50;99229.25;123467;1099;104306;-77
2024/01/18 05:45:02;;;;;;;30.97;17.33;;;;;;;2.97;92.10;99225.02;123701;1099;104363;-77
2024/01/18 05:47:34;;;;;;;32.97;18.20;;;;;;;2.99;92.41;99223.40;123299;1099;104352;-77
2024/01/18 05:50:06;;;;;;;32.30;17.07;;;;;;;3.01;92.37;99224.34;123706;1099;104272;-78
2024/01/18 05:52:37;;;;;;;34.63;17.27;;;;;;;3.02;92.15;99226.13;123773;1099;104396;-77
2024/01/18 05:55:09;;;;;;;36.17;18.87;;;;;;;3.05;92.50;99222.77;124042;1099;104252;-76
2024/01/18 05:57:41;;;;;;;35.25;18.75;;;;;;;3.10;92.79;99225.56;124228;1099;104178;-78
2024/01/18 06:00:14;;;;;;;39.50;19.57;;;;;;;3.14;93.15;99225.77;123912;1099;104283;-78
2024/01/18 06:02:45;;;;;;;35.67;19.50;;;;;;;3.17;93.40;99228.50;125527;1099;104188;-78
2024/01/18 06:05:17;;;;;;;38.93;20.33;;;;;;;3.22;92.77;99228.71;123809;1099;104207;-77
2024/01/18 06:07:49;;;;;;;39.05;18.85;;;;;;;3.23;93.07;99217.53;123677;1099;104195;-78
2024/01/18 06:10:20;;;;;;;38.57;20.17;;;;;;;3.27;92.72;99222.02;123902;1099;104213;-77
2024/01/18 06:12:52;;;;;;;39.40;20.33;;;;;;;3.30;92.90;99214.38;123635;1099;104399;-77
2024/01/18 06:15:23;;;;;;;34.37;17.87;;;;;;;3.34;92.54;99205.92;124006;1099;104272;-76
2024/01/18 06:17:56;;;;;;;34.03;17.23;;;;;;;3.35;92.20;99199.92;124783;1099;104274;-76
2024/01/18 06:20:28;;;;;;;38.65;20.02;;;;;;;3.39;91.76;99196.62;124043;1099;104682;-77
2024/01/18 06:23:00;;;;;;;34.05;17.15;;;;;;;3.43;92.50;99195.08;123847;1099;104267;-76
2024/01/18 06:25:31;;;;;;;36.15;19.80;;;;;;;3.50;92.51;99203.99;123914;1102;104258;-75
2024/01/18 06:28:04;;;;;;;35.97;19.73;;;;;;;3.55;91.64;99190.41;124011;1099;104173;-76
2024/01/18 06:30:43;;;;;;;39.60;20.37;;;;;;;3.63;92.82;99200.20;126257;1099;103511;-76
2024/01/18 06:33:14;;;;;;;43.67;22.20;;;;;;;3.68;92.38;99197.00;126205;1099;101933;-76
2024/01/18 06:35:46;;;;;;;38.57;21.73;;;;;;;3.72;92.75;99191.09;125482;1099;104251;-76
2024/01/18 06:38:20;;;;;;;37.63;21.30;;;;;;;3.78;92.11;99190.48;124076;1099;104172;-76
2024/01/18 06:40:51;;;;;;;38.53;20.80;;;;;;;3.82;92.04;99182.01;123823;1098;104865;-75
2024/01/18 06:43:22;;;;;;;38.25;20.10;;;;;;;3.84;92.27;99172.56;124193;1099;104294;-76
2024/01/18 06:45:54;;;;;;;38.13;20.83;;;;;;;3.87;92.32;99164.03;124150;1099;104227;-76
2024/01/18 06:48:26;;;;;;;37.73;20.57;;;;;;;3.89;92.28;99163.25;124036;1099;102952;-76
2024/01/18 06:50:57;;;;;;;38.20;20.77;;;;;;;3.96;92.48;99167.00;124250;1099;104204;-77
2024/01/18 06:53:29;;;;;;;36.77;19.33;;;;;;;4.01;92.10;99167.19;123976;1100;104293;-76
2024/01/18 06:56:01;;;;;;;35.47;18.50;;;;;;;4.05;92.36;99167.38;124317;1099;104254;-77
2024/01/18 06:58:32;;;;;;;35.57;19.00;;;;;;;4.07;91.97;99162.25;124086;1099;104229;-78
2024/01/18 07:01:04;;;;;;;38.17;20.23;;;;;;;4.11;92.15;99159.84;124216;1099;104788;-76
2024/01/18 07:03:35;;;;;;;35.37;19.70;;;;;;;4.14;92.24;99161.65;124229;1099;104198;-77
2024/01/18 07:06:07;;;;;;;38.93;20.47;;;;;;;4.17;92.48;99164.36;124437;1099;104347;-76
2024/01/18 07:08:39;;;;;;;34.63;18.77;;;;;;;4.19;92.29;99161.83;124409;1099;104245;-77
2024/01/18 07:11:10;;;;;;;38.77;20.73;;;;;;;4.23;92.29;99156.82;124314;1099;104172;-77
2024/01/18 07:13:43;;;;;;;39.37;19.47;;;;;;;4.27;92.47;99150.93;123979;1099;104230;-77
2024/01/18 07:16:15;;;;;;;35.50;18.57;;;;;;;4.30;92.42;99147.55;123891;1099;104175;-76
2024/01/18 07:18:46;;;;;;;35.97;19.50;;;;;;;4.32;91.85;99154.58;124504;1099;102570;-76
2024/01/18 07:21:19;;;;;;;39.13;20.80;;;;;;;4.36;92.04;99154.70;124326;1099;104252;-77
2024/01/18 07:23:50;;;;;;;39.37;19.70;;;;;;;4.40;91.84;99149.69;124447;1099;103384;-76
2024/01/18 07:26:22;;;;;;;38.10;20.10;;;;;;;4.43;92.15;99149.80;124521;1098;102845;-77
2024/01/18 07:28:54;;;;;;;43.27;21.50;;;;;;;4.45;91.90;99144.67;124275;1099;104044;-76
2024/01/18 07:31:26;;;;;;;39.23;19.87;;;;;;;4.48;92.21;99143.06;124189;1099;103008;-75
2024/01/18 07:33:58;;;;;;;38.57;19.87;;;;;;;4.54;91.78;99138.95;124256;1102;102452;-76
2024/01/18 07:36:29;;;;;;;41.87;20.07;;;;;;;4.58;92.08;99139.13;123976;1103;104685;-75
2024/01/18 07:39:02;;;;;;;40.80;21.35;;;;;;;4.61;92.33;99133.14;124068;1099;104390;-75
2024/01/18 07:41:33;;;;;;;38.17;20.50;;;;;;;4.64;92.11;99131.56;124288;1099;104197;-75
2024/01/18 07:44:05;;;;;;;38.55;20.00;;;;;;;4.67;92.44;99129.08;123877;1099;104168;-75
2024/01/18 07:46:37;;;;;;;38.77;21.13;;;;;;;4.72;92.52;99120.55;124064;1099;104301;-76
2024/01/18 07:49:10;;;;;;;39.40;20.07;;;;;;;4.75;92.05;99118.06;124219;1099;104252;-75
2024/01/18 07:51:41;;;;;;;37.53;19.30;;;;;;;4.77;92.07;99118.99;124052;1099;104168;-76
2024/01/18 07:54:15;;;;;;;37.37;20.43;;;;;;;4.78;91.94;99112.98;123855;1099;104261;-74
2024/01/18 07:56:46;;;;;;;36.90;19.30;;;;;;;4.84;92.12;99108.87;123962;1099;104296;-75
2024/01/18 07:59:20;;;;;;;33.23;17.27;;;;;;;4.92;92.51;99113.48;124075;1099;104415;-75
2024/01/18 08:01:52;;;;;;;34.27;18.73;;;;;;;4.96;92.23;99115.38;124341;1099;104198;-76
2024/01/18 08:04:25;;;;;;;35.37;18.33;;;;;;;5.04;92.21;99119.13;124193;1102;103918;-75
2024/01/18 08:06:57;;;;;;;35.63;19.07;;;;;;;5.10;92.37;99114.14;124162;1099;103718;-73
2024/01/18 08:09:29;;;;;;;34.53;18.97;;;;;;;5.16;92.17;99109.16;123722;1098;104182;-75
2024/01/18 08:12:11;;;;;;;36.95;18.70;;;;;;;5.23;92.19;99107.64;124104;1102;104721;-76
2024/01/18 08:14:46;;;;;;;35.93;18.63;;;;;;;5.27;92.31;99109.53;124291;1099;104172;-76
2024/01/18 08:17:17;;;;;;;35.27;19.40;;;;;;;5.32;91.82;99105.36;124144;1099;104382;-76
2024/01/18 08:19:48;;;;;;;34.00;18.80;;;;;;;5.38;92.05;99102.97;123905;1102;104360;-75
2024/01/18 08:22:21;;;;;;;38.87;17.80;;;;;;;5.44;92.30;99098.80;123975;1102;104334;-76
2024/01/18 08:24:53;;;;;;;35.10;18.70;;;;;;;5.47;92.00;99098.90;124075;1102;104248;-76
2024/01/18 08:27:27;;;;;;;34.87;18.50;;;;;;;5.46;91.19;99092.82;124108;1099;104226;-76
2024/01/18 08:30:03;;;;;;;31.90;16.10;;;;;;;5.47;91.68;99094.60;124147;1099;104069;-75
2024/01/18 08:32:38;;;;;;;31.23;15.80;;;;;;;5.53;91.70;99091.30;124518;1099;104268;-76
2024/01/18 08:35:11;;;;;;;33.33;16.13;;;;;;;5.60;91.99;99095.02;124390;1099;104399;-76
2024/01/18 08:37:42;;;;;;;31.53;17.27;;;;;;;5.66;91.69;99084.80;126172;1099;102495;-76
2024/01/18 08:40:16;;;;;;;29.53;15.50;;;;;;;5.68;91.62;99080.52;126152;1099;101934;-76
2024/01/18 08:42:49;;;;;;;33.48;14.60;;;;;;;5.70;91.68;99074.55;126648;1099;101954;-77
2024/01/18 08:45:21;;;;;;;31.63;15.87;;;;;;;5.76;91.97;99074.74;126070;1098;102686;-75
2024/01/18 08:47:53;;;;;;;29.90;17.17;;;;;;;5.84;92.17;99071.48;124213;1099;104245;-75
2024/01/18 08:50:25;;;;;;;33.87;17.50;;;;;;;5.92;92.23;99064.78;123693;1099;104274;-75
2024/01/18 08:52:56;;;;;;;34.67;18.20;;;;;;;5.94;92.01;99071.81;124240;1099;104367;-75
2024/01/18 08:55:27;;;;;;;34.40;19.43;;;;;;;5.96;91.57;99058.84;124256;1099;104246;-75
2024/01/18 08:57:58;;;;;;;34.27;18.23;;;;;;;5.95;91.38;99062.27;124188;1099;104277;-75
2024/01/18 09:00:30;;;;;;;31.57;18.33;;;;;;;5.97;91.57;99057.15;124553;1099;104204;-76
2024/01/18 09:03:01;;;;;;;32.73;17.27;;;;;;;5.98;91.43;99057.20;124339;1099;104332;-75
2024/01/18 09:05:32;;;;;;;42.87;19.17;;;;;;;6.04;91.42;99046.97;124459;1099;104399;-75
2024/01/18 09:08:05;;;;;;;32.10;16.60;;;;;;;6.07;91.34;99040.98;124294;1099;104284;-75
2024/01/18 09:10:36;;;;;;;35.77;18.17;;;;;;;6.06;90.65;99024.48;124187;1099;104292;-75
2024/01/18 09:13:07;;;;;;;35.70;18.90;;;;;;;6.06;90.84;99029.69;124344;1099;104166;-76
2024/01/18 09:15:39;;;;;;;33.43;18.13;;;;;;;6.06;90.24;99020.98;124459;1099;104719;-75
2024/01/18 09:18:10;;;;;;;34.90;17.77;;;;;;;6.06;90.45;99014.06;124329;1099;104165;-76
2024/01/18 09:20:45;;;;;;;31.50;16.63;;;;;;;6.12;90.94;99018.55;123985;1102;104249;-76
2024/01/18 09:23:16;;;;;;;30.70;15.50;;;;;;;6.14;90.83;99002.97;124305;1099;103692;-76
2024/01/18 09:25:48;;;;;;;29.30;15.40;;;;;;;6.17;90.77;99010.87;124408;1099;104208;-75
2024/01/18 09:28:21;;;;;;;28.23;14.90;;;;;;;6.22;91.16;99004.11;124272;1099;104101;-75
2024/01/18 09:31:21;;;;;;;28.50;15.00;;;;;;;6.27;91.18;98994.69;124624;1099;104724;-76
2024/01/18 09:33:56;;;;;;;29.77;15.00;;;;;;;6.33;90.89;98987.05;124066;1099;104245;-75
2024/01/18 09:36:27;;;;;;;28.83;14.90;;;;;;;6.39;91.27;98992.44;124390;1099;104220;-75
2024/01/18 09:38:58;;;;;;;31.57;16.83;;;;;;;6.47;91.12;98985.70;124270;1098;104302;-76
2024/01/18 09:41:30;;;;;;;29.80;15.53;;;;;;;6.54;91.21;98970.24;124493;1099;103020;-76
2024/01/18 09:44:05;;;;;;;28.10;14.33;;;;;;;6.58;90.92;98961.67;124538;1099;103307;-77
2024/01/18 09:46:38;;;;;;;27.37;13.60;;;;;;;6.61;90.82;98961.77;124445;1099;104223;-76
2024/01/18 09:49:13;;;;;;;28.23;13.60;;;;;;;6.65;90.34;98961.88;123940;1099;104242;-76
2024/01/18 09:51:45;;;;;;;26.43;13.77;;;;;;;6.70;91.03;98954.19;124261;1099;104243;-75
2024/01/18 09:54:17;;;;;;;25.67;12.67;;;;;;;6.81;91.22;98950.13;124274;1099;102802;-75
2024/01/18 09:56:54;;;;;;;26.40;13.27;;;;;;;6.93;90.71;98953.88;124324;1099;104393;-75
2024/01/18 09:59:43;;;;;;;27.63;13.73;;;;;;;7.00;90.99;98954.08;124365;1099;104229;-75
2024/01/18 10:02:15;;;;;;;26.47;13.47;;;;;;;7.12;90.90;98958.73;124446;1099;104246;-75
2024/01/18 10:04:47;;;;;;;24.60;12.93;;;;;;;7.23;90.89;98953.78;124398;1099;104251;-75
2024/01/18 10:07:20;;;;;;;24.70;12.70;;;;;;;7.33;91.27;98953.13;124432;1099;102013;-76
2024/01/18 10:09:51;;;;;;;29.43;13.77;;;;;;;7.38;90.57;98942.80;124505;1098;104188;-76
2024/01/18 10:12:32;;;;;;;24.55;12.63;;;;;;;7.43;90.59;98941.17;124645;1099;104194;-77
2024/01/18 10:15:03;;;;;;;26.63;13.63;;;;;;;7.40;89.29;98925.45;124726;1099;104092;-75
2024/01/18 10:17:37;;;;;;;26.40;13.40;;;;;;;7.39;89.24;98931.53;124658;1099;104207;-78
2024/01/18 10:20:13;;;;;;;25.23;12.70;;;;;;;7.37;88.45;98928.02;124674;1098;104793;-78
2024/01/18 10:22:46;;;;;;;25.63;13.43;;;;;;;7.35;88.99;98940.13;124478;1099;104175;-76
2024/01/18 10:25:19;;;;;;;24.80;12.87;;;;;;;7.34;88.87;98935.77;124669;1099;104226;-77
2024/01/18 10:27:53;;;;;;;24.93;12.90;;;;;;;7.37;89.52;98935.84;124552;1099;102310;-76
2024/01/18 10:30:28;;;;;;;24.70;13.00;;;;;;;7.42;89.48;98931.60;124915;1099;105651;-76
2024/01/18 10:35:56;;;;;;;25.10;12.93;;;;;;;7.48;89.76;98923.01;125133;1099;102666;-76
2024/01/18 10:38:32;;;;;;;27.10;12.90;;;;;;;7.47;89.34;98911.70;124866;1099;104305;-76
2024/01/18 10:41:05;;;;;;;25.27;12.87;;;;;;;7.46;89.06;98903.84;126478;1099;102420;-74
2024/01/18 10:43:44;;;;;;;24.33;13.00;;;;;;;7.38;88.46;98880.17;124378;1099;103228;-74
2024/01/18 10:46:39;;;;;;;22.37;11.50;;;;;;;7.41;88.35;98879.38;126671;1098;101927;-75
2024/01/18 10:49:13;;;;;;;25.43;13.13;;;;;;;7.43;88.53;98873.32;126851;1098;102738;-73
2024/01/18 10:51:51;;;;;;;24.07;12.33;;;;;;;7.47;88.77;98864.72;125575;1099;104430;-75
2024/01/18 10:54:23;;;;;;;29.17;12.73;;;;;;;7.44;88.15;98867.27;124883;1099;104185;-74
2024/01/18 10:56:56;;;;;;;25.23;12.93;;;;;;;7.42;87.73;98861.14;124223;1099;104316;-74
2024/01/18 10:59:29;;;;;;;24.63;12.83;;;;;;;7.41;87.73;98859.37;124480;1099;104258;-75
2024/01/18 11:02:02;;;;;;;26.30;13.23;;;;;;;7.41;88.37;98854.15;125103;1099;104327;-75
2024/01/18 11:04:33;;;;;;;26.75;13.25;;;;;;;7.45;88.28;98845.55;124666;1099;104323;-76
2024/01/18 11:07:09;;;;;;;26.07;13.27;;;;;;;7.47;87.65;98841.23;124386;1099;102233;-75
2024/01/18 11:09:43;;;;;;;25.30;12.75;;;;;;;7.51;87.85;98842.17;124880;1099;104184;-75
2024/01/18 11:12:17;;;;;;;23.40;12.67;;;;;;;7.52;87.33;98842.20;125201;1099;104201;-75
2024/01/18 11:14:50;;;;;;;30.25;13.88;;;;;;;7.54;87.92;98839.62;125087;1099;104223;-75
2024/01/18 11:17:22;;;;;;;23.40;12.30;;;;;;;7.53;87.08;98828.31;125275;1099;104361;-75
2024/01/18 11:19:56;;;;;;;23.73;12.13;;;;;;;7.53;87.95;98828.31;125253;1099;104188;-75
2024/01/18 11:22:33;;;;;;;25.97;12.00;;;;;;;7.52;87.34;98821.32;124417;1099;112533;-76
2024/01/18 11:25:09;;;;;;;24.20;13.40;;;;;;;7.53;87.53;98817.00;124774;1099;104168;-75
2024/01/18 11:27:44;;;;;;;27.40;13.23;;;;;;;7.58;88.12;98809.27;126821;1099;101991;-75
2024/01/18 11:30:40;;;;;;;26.60;14.10;;;;;;;7.59;87.92;98806.69;126477;1099;102235;-74
2024/01/18 11:33:13;;;;;;;26.83;13.93;;;;;;;7.65;87.34;98798.08;125396;1099;104245;-74
2024/01/18 11:35:45;;;;;;;25.43;13.73;;;;;;;7.68;87.56;98795.53;124456;1099;104265;-77